sensor_id;sensor_type;location;lat;lon;timestamp;pressure;altitude;pressure_sealevel;temperature;humidity
68380;BME280;57711;53.196;19.638;2023-06-14T00:00:32;100387.09;;;15.91;48.91
68380;BME280;57711;53.196;19.638;2023-06-14T00:03:20;100385.15;;;15.95;48.97
68380;BME280;57711;53.196;19.638;2023-06-14T00:05:48;100382.80;;;15.95;48.93
68380;BME280;57711;53.196;19.638;2023-06-14T00:08:15;100377.13;;;15.95;49.08
68380;BME280;57711;53.196;19.638;2023-06-14T00:10:41;100375.43;;;15.97;49.06
68380;BME280;57711;53.196;19.638;2023-06-14T00:13:09;100376.51;;;15.99;49.16
68380;BME280;57711;53.196;19.638;2023-06-14T00:15:35;100375.85;;;16.03;49.20
68380;BME280;57711;53.196;19.638;2023-06-14T00:18:02;100371.38;;;16.07;49.10
68380;BME280;57711;53.196;19.638;2023-06-14T00:20:31;100361.73;;;16.09;49.08
68380;BME280;57711;53.196;19.638;2023-06-14T00:22:59;100362.80;;;16.11;49.35
68380;BME280;57711;53.196;19.638;2023-06-14T00:25:27;100359.55;;;16.07;49.27
68380;BME280;57711;53.196;19.638;2023-06-14T00:27:57;100353.94;;;16.05;49.23
68380;BME280;57711;53.196;19.638;2023-06-14T00:30:24;100353.17;;;16.07;49.37
68380;BME280;57711;53.196;19.638;2023-06-14T00:32:51;100342.75;;;16.07;49.42
68380;BME280;57711;53.196;19.638;2023-06-14T00:35:18;100335.71;;;16.07;49.40
68380;BME280;57711;53.196;19.638;2023-06-14T00:37:44;100328.19;;;16.07;49.33
68380;BME280;57711;53.196;19.638;2023-06-14T00:40:11;100324.14;;;16.09;49.47
68380;BME280;57711;53.196;19.638;2023-06-14T00:42:37;100323.57;;;16.11;49.42
68380;BME280;57711;53.196;19.638;2023-06-14T00:45:05;100318.48;;;16.12;49.46
68380;BME280;57711;53.196;19.638;2023-06-14T00:47:32;100318.98;;;16.14;49.51
68380;BME280;57711;53.196;19.638;2023-06-14T00:49:58;100317.61;;;16.12;49.54
68380;BME280;57711;53.196;19.638;2023-06-14T00:52:26;100322.00;;;16.12;49.53
68380;BME280;57711;53.196;19.638;2023-06-14T00:54:54;100319.84;;;16.13;49.65
68380;BME280;57711;53.196;19.638;2023-06-14T00:57:20;100319.73;;;16.14;49.65
68380;BME280;57711;53.196;19.638;2023-06-14T00:59:48;100321.00;;;16.14;49.71
68380;BME280;57711;53.196;19.638;2023-06-14T01:02:16;100323.84;;;16.15;49.84
68380;BME280;57711;53.196;19.638;2023-06-14T01:04:45;100317.48;;;16.16;49.75
68380;BME280;57711;53.196;19.638;2023-06-14T01:07:24;100319.50;;;16.18;49.89
68380;BME280;57711;53.196;19.638;2023-06-14T01:12:39;100309.02;;;16.23;49.82
68380;BME280;57711;53.196;19.638;2023-06-14T01:15:08;100309.40;;;16.27;49.85
68380;BME280;57711;53.196;19.638;2023-06-14T01:17:36;100304.94;;;16.29;49.79
68380;BME280;57711;53.196;19.638;2023-06-14T01:20:12;100306.79;;;16.30;49.92
68380;BME280;57711;53.196;19.638;2023-06-14T01:22:55;100307.13;;;16.32;49.89
68380;BME280;57711;53.196;19.638;2023-06-14T01:25:23;100308.15;;;16.35;49.90
68380;BME280;57711;53.196;19.638;2023-06-14T01:27:51;100311.48;;;16.34;50.02
68380;BME280;57711;53.196;19.638;2023-06-14T01:30:20;100319.45;;;16.33;49.95
68380;BME280;57711;53.196;19.638;2023-06-14T01:32:47;100318.89;;;16.33;50.13
68380;BME280;57711;53.196;19.638;2023-06-14T01:35:16;100324.33;;;16.32;50.08
68380;BME280;57711;53.196;19.638;2023-06-14T01:37:43;100322.90;;;16.32;50.13
68380;BME280;57711;53.196;19.638;2023-06-14T01:40:14;100321.27;;;16.28;49.86
68380;BME280;57711;53.196;19.638;2023-06-14T01:42:42;100321.67;;;16.28;49.99
68380;BME280;57711;53.196;19.638;2023-06-14T01:45:11;100318.19;;;16.27;50.17
68380;BME280;57711;53.196;19.638;2023-06-14T01:47:38;100316.67;;;16.27;50.04
68380;BME280;57711;53.196;19.638;2023-06-14T01:50:06;100310.21;;;16.26;50.10
68380;BME280;57711;53.196;19.638;2023-06-14T01:52:33;100309.42;;;16.25;50.09
68380;BME280;57711;53.196;19.638;2023-06-14T01:54:59;100308.91;;;16.26;49.95
68380;BME280;57711;53.196;19.638;2023-06-14T01:57:29;100305.05;;;16.28;50.22
68380;BME280;57711;53.196;19.638;2023-06-14T01:59:55;100299.98;;;16.29;50.21
68380;BME280;57711;53.196;19.638;2023-06-14T02:02:22;100296.97;;;16.30;50.30
68380;BME280;57711;53.196;19.638;2023-06-14T02:04:48;100296.98;;;16.29;50.21
68380;BME280;57711;53.196;19.638;2023-06-14T02:07:15;100293.59;;;16.26;50.34
68380;BME280;57711;53.196;19.638;2023-06-14T02:09:42;100292.60;;;16.25;50.28
68380;BME280;57711;53.196;19.638;2023-06-14T02:12:09;100292.36;;;16.24;50.32
68380;BME280;57711;53.196;19.638;2023-06-14T02:14:37;100294.06;;;16.23;50.52
68380;BME280;57711;53.196;19.638;2023-06-14T02:17:06;100294.21;;;16.20;50.45
68380;BME280;57711;53.196;19.638;2023-06-14T02:19:35;100300.27;;;16.20;50.61
68380;BME280;57711;53.196;19.638;2023-06-14T02:22:03;100300.73;;;16.19;50.47
68380;BME280;57711;53.196;19.638;2023-06-14T02:24:29;100296.62;;;16.17;50.30
68380;BME280;57711;53.196;19.638;2023-06-14T02:26:56;100293.16;;;16.17;50.41
68380;BME280;57711;53.196;19.638;2023-06-14T02:29:22;100296.45;;;16.17;50.34
68380;BME280;57711;53.196;19.638;2023-06-14T02:31:49;100295.23;;;16.16;50.40
68380;BME280;57711;53.196;19.638;2023-06-14T02:34:16;100302.27;;;16.17;50.54
68380;BME280;57711;53.196;19.638;2023-06-14T02:36:46;100303.23;;;16.16;50.38
68380;BME280;57711;53.196;19.638;2023-06-14T02:39:14;100302.88;;;16.16;50.70
68380;BME280;57711;53.196;19.638;2023-06-14T02:41:43;100303.30;;;16.14;50.62
68380;BME280;57711;53.196;19.638;2023-06-14T02:44:09;100301.47;;;16.14;50.64
68380;BME280;57711;53.196;19.638;2023-06-14T02:46:37;100300.41;;;16.14;50.62
68380;BME280;57711;53.196;19.638;2023-06-14T02:49:04;100308.52;;;16.15;50.73
68380;BME280;57711;53.196;19.638;2023-06-14T02:51:31;100310.54;;;16.15;50.73
68380;BME280;57711;53.196;19.638;2023-06-14T02:53:58;100308.90;;;16.13;50.59
68380;BME280;57711;53.196;19.638;2023-06-14T02:56:24;100299.23;;;16.09;50.72
68380;BME280;57711;53.196;19.638;2023-06-14T02:58:52;100299.39;;;16.07;50.85
68380;BME280;57711;53.196;19.638;2023-06-14T03:01:19;100302.20;;;16.04;50.90
68380;BME280;57711;53.196;19.638;2023-06-14T03:03:47;100316.02;;;16.07;50.86
68380;BME280;57711;53.196;19.638;2023-06-14T03:06:13;100324.02;;;16.12;50.84
68380;BME280;57711;53.196;19.638;2023-06-14T03:08:44;100322.86;;;16.16;51.05
68380;BME280;57711;53.196;19.638;2023-06-14T03:11:14;100324.70;;;16.17;50.78
68380;BME280;57711;53.196;19.638;2023-06-14T03:13:41;100319.25;;;16.15;51.08
68380;BME280;57711;53.196;19.638;2023-06-14T03:16:08;100317.65;;;16.15;51.02
68380;BME280;57711;53.196;19.638;2023-06-14T03:18:36;100317.28;;;16.15;51.14
68380;BME280;57711;53.196;19.638;2023-06-14T03:21:04;100306.95;;;16.13;51.08
68380;BME280;57711;53.196;19.638;2023-06-14T03:23:31;100302.63;;;16.11;51.13
68380;BME280;57711;53.196;19.638;2023-06-14T03:25:57;100299.94;;;16.12;50.95
68380;BME280;57711;53.196;19.638;2023-06-14T03:28:24;100294.54;;;16.11;51.05
68380;BME280;57711;53.196;19.638;2023-06-14T03:30:52;100296.45;;;16.10;51.16
68380;BME280;57711;53.196;19.638;2023-06-14T03:33:19;100302.60;;;16.11;51.18
68380;BME280;57711;53.196;19.638;2023-06-14T03:35:47;100305.45;;;16.13;51.27
68380;BME280;57711;53.196;19.638;2023-06-14T03:38:14;100294.09;;;16.17;51.31
68380;BME280;57711;53.196;19.638;2023-06-14T03:40:41;100293.13;;;16.19;51.09
68380;BME280;57711;53.196;19.638;2023-06-14T03:43:22;100289.42;;;16.19;51.05
68380;BME280;57711;53.196;19.638;2023-06-14T03:45:49;100285.11;;;16.22;51.36
68380;BME280;57711;53.196;19.638;2023-06-14T03:48:16;100283.61;;;16.24;51.09
68380;BME280;57711;53.196;19.638;2023-06-14T03:50:42;100288.34;;;16.24;51.28
68380;BME280;57711;53.196;19.638;2023-06-14T03:53:10;100287.10;;;16.26;51.24
68380;BME280;57711;53.196;19.638;2023-06-14T03:55:40;100288.80;;;16.25;51.36
68380;BME280;57711;53.196;19.638;2023-06-14T03:58:34;100292.23;;;16.25;51.32
68380;BME280;57711;53.196;19.638;2023-06-14T04:01:01;100295.17;;;16.25;51.57
68380;BME280;57711;53.196;19.638;2023-06-14T04:03:30;100296.20;;;16.26;51.46
68380;BME280;57711;53.196;19.638;2023-06-14T04:06:00;100295.88;;;16.27;51.38
68380;BME280;57711;53.196;19.638;2023-06-14T04:08:27;100295.17;;;16.30;51.56
68380;BME280;57711;53.196;19.638;2023-06-14T04:10:54;100297.14;;;16.33;51.44
68380;BME280;57711;53.196;19.638;2023-06-14T04:13:21;100297.38;;;16.38;51.49
68380;BME280;57711;53.196;19.638;2023-06-14T04:15:48;100295.83;;;16.42;51.59
68380;BME280;57711;53.196;19.638;2023-06-14T04:18:20;100296.52;;;16.45;51.61
68380;BME280;57711;53.196;19.638;2023-06-14T04:20:50;100298.61;;;16.48;51.60
68380;BME280;57711;53.196;19.638;2023-06-14T04:23:17;100300.19;;;16.50;51.57
68380;BME280;57711;53.196;19.638;2023-06-14T04:25:45;100295.70;;;16.49;51.43
68380;BME280;57711;53.196;19.638;2023-06-14T04:28:12;100298.52;;;16.49;51.66
68380;BME280;57711;53.196;19.638;2023-06-14T04:30:42;100304.70;;;16.49;51.69
68380;BME280;57711;53.196;19.638;2023-06-14T04:33:09;100299.05;;;16.49;51.61
68380;BME280;57711;53.196;19.638;2023-06-14T04:35:36;100299.56;;;16.49;51.76
68380;BME280;57711;53.196;19.638;2023-06-14T04:38:04;100292.85;;;16.44;51.64
68380;BME280;57711;53.196;19.638;2023-06-14T04:40:32;100291.65;;;16.40;51.65
68380;BME280;57711;53.196;19.638;2023-06-14T04:43:00;100289.21;;;16.39;51.82
68380;BME280;57711;53.196;19.638;2023-06-14T04:45:27;100283.85;;;16.40;51.75
68380;BME280;57711;53.196;19.638;2023-06-14T04:47:59;100284.53;;;16.42;51.89
68380;BME280;57711;53.196;19.638;2023-06-14T04:50:27;100289.36;;;16.44;51.79
68380;BME280;57711;53.196;19.638;2023-06-14T04:52:55;100284.17;;;16.46;51.87
68380;BME280;57711;53.196;19.638;2023-06-14T04:55:23;100285.73;;;16.50;51.94
68380;BME280;57711;53.196;19.638;2023-06-14T04:57:51;100283.69;;;16.49;51.85
68380;BME280;57711;53.196;19.638;2023-06-14T05:00:20;100290.64;;;16.51;51.98
68380;BME280;57711;53.196;19.638;2023-06-14T05:02:47;100293.37;;;16.54;52.05
68380;BME280;57711;53.196;19.638;2023-06-14T05:05:15;100288.70;;;16.58;52.08
68380;BME280;57711;53.196;19.638;2023-06-14T05:07:44;100289.42;;;16.56;52.07
68380;BME280;57711;53.196;19.638;2023-06-14T05:10:11;100283.15;;;16.57;52.24
68380;BME280;57711;53.196;19.638;2023-06-14T05:12:38;100283.45;;;16.55;52.21
68380;BME280;57711;53.196;19.638;2023-06-14T05:15:06;100285.21;;;16.55;51.97
68380;BME280;57711;53.196;19.638;2023-06-14T05:17:35;100282.02;;;16.57;52.27
68380;BME280;57711;53.196;19.638;2023-06-14T05:20:08;100278.24;;;16.62;52.06
68380;BME280;57711;53.196;19.638;2023-06-14T05:22:45;100283.56;;;16.68;52.15
68380;BME280;57711;53.196;19.638;2023-06-14T05:25:22;100277.68;;;16.68;52.27
68380;BME280;57711;53.196;19.638;2023-06-14T05:28:10;100272.80;;;16.71;52.00
68380;BME280;57711;53.196;19.638;2023-06-14T05:30:58;100273.16;;;16.74;52.22
68380;BME280;57711;53.196;19.638;2023-06-14T05:33:29;100276.24;;;16.77;52.17
68380;BME280;57711;53.196;19.638;2023-06-14T05:35:56;100268.62;;;16.82;52.20
68380;BME280;57711;53.196;19.638;2023-06-14T05:38:22;100269.59;;;16.85;52.23
68380;BME280;57711;53.196;19.638;2023-06-14T05:40:49;100270.66;;;16.87;52.07
68380;BME280;57711;53.196;19.638;2023-06-14T05:43:15;100271.64;;;16.88;52.18
68380;BME280;57711;53.196;19.638;2023-06-14T05:45:42;100275.23;;;16.90;52.29
68380;BME280;57711;53.196;19.638;2023-06-14T05:48:08;100274.07;;;16.90;52.16
68380;BME280;57711;53.196;19.638;2023-06-14T05:50:35;100275.64;;;16.95;52.31
68380;BME280;57711;53.196;19.638;2023-06-14T05:53:02;100278.63;;;17.02;52.18
68380;BME280;57711;53.196;19.638;2023-06-14T05:55:28;100278.75;;;17.05;52.18
68380;BME280;57711;53.196;19.638;2023-06-14T05:57:54;100283.64;;;17.09;52.20
68380;BME280;57711;53.196;19.638;2023-06-14T06:00:21;100284.58;;;17.11;52.25
68380;BME280;57711;53.196;19.638;2023-06-14T06:02:48;100285.81;;;17.16;52.37
68380;BME280;57711;53.196;19.638;2023-06-14T06:05:15;100287.96;;;17.20;52.28
68380;BME280;57711;53.196;19.638;2023-06-14T06:07:43;100285.57;;;17.23;52.20
68380;BME280;57711;53.196;19.638;2023-06-14T06:10:11;100286.23;;;17.25;52.04
68380;BME280;57711;53.196;19.638;2023-06-14T06:12:38;100282.94;;;17.27;52.12
68380;BME280;57711;53.196;19.638;2023-06-14T06:15:05;100284.05;;;17.32;52.23
68380;BME280;57711;53.196;19.638;2023-06-14T06:17:32;100287.83;;;17.35;52.16
68380;BME280;57711;53.196;19.638;2023-06-14T06:20:18;100290.36;;;17.39;52.23
68380;BME280;57711;53.196;19.638;2023-06-14T06:22:45;100296.43;;;17.42;52.40
68380;BME280;57711;53.196;19.638;2023-06-14T06:25:11;100298.08;;;17.48;52.12
68380;BME280;57711;53.196;19.638;2023-06-14T06:27:38;100302.88;;;17.52;52.26
68380;BME280;57711;53.196;19.638;2023-06-14T06:30:07;100306.56;;;17.55;52.21
68380;BME280;57711;53.196;19.638;2023-06-14T06:32:34;100309.29;;;17.57;52.24
68380;BME280;57711;53.196;19.638;2023-06-14T06:35:00;100309.27;;;17.60;52.22
68380;BME280;57711;53.196;19.638;2023-06-14T06:37:27;100312.94;;;17.64;52.19
68380;BME280;57711;53.196;19.638;2023-06-14T06:39:53;100314.69;;;17.69;52.24
68380;BME280;57711;53.196;19.638;2023-06-14T06:42:20;100311.80;;;17.74;52.16
68380;BME280;57711;53.196;19.638;2023-06-14T06:44:49;100312.63;;;17.79;52.36
68380;BME280;57711;53.196;19.638;2023-06-14T06:47:16;100316.06;;;17.84;52.38
68380;BME280;57711;53.196;19.638;2023-06-14T06:49:42;100319.30;;;17.91;52.44
68380;BME280;57711;53.196;19.638;2023-06-14T06:52:08;100324.91;;;17.99;52.46
68380;BME280;57711;53.196;19.638;2023-06-14T06:54:35;100324.12;;;18.06;52.33
68380;BME280;57711;53.196;19.638;2023-06-14T06:57:02;100317.19;;;18.10;52.06
68380;BME280;57711;53.196;19.638;2023-06-14T06:59:28;100317.02;;;18.16;52.16
68380;BME280;57711;53.196;19.638;2023-06-14T07:01:55;100321.03;;;18.24;52.21
68380;BME280;57711;53.196;19.638;2023-06-14T07:04:22;100326.41;;;18.32;52.24
68380;BME280;57711;53.196;19.638;2023-06-14T07:06:49;100329.25;;;18.42;52.30
68380;BME280;57711;53.196;19.638;2023-06-14T07:09:15;100325.17;;;18.53;52.12
68380;BME280;57711;53.196;19.638;2023-06-14T07:11:43;100332.19;;;18.63;52.34
68380;BME280;57711;53.196;19.638;2023-06-14T07:14:11;100335.83;;;18.72;52.28
68380;BME280;57711;53.196;19.638;2023-06-14T07:16:38;100331.27;;;18.80;52.04
68380;BME280;57711;53.196;19.638;2023-06-14T07:19:05;100331.39;;;18.85;52.16
68380;BME280;57711;53.196;19.638;2023-06-14T07:21:31;100334.22;;;18.91;52.13
68380;BME280;57711;53.196;19.638;2023-06-14T07:23:58;100336.14;;;18.96;52.14
68380;BME280;57711;53.196;19.638;2023-06-14T07:26:24;100336.07;;;19.02;52.11
68380;BME280;57711;53.196;19.638;2023-06-14T07:28:51;100333.01;;;19.07;52.08
68380;BME280;57711;53.196;19.638;2023-06-14T07:31:18;100336.13;;;19.14;52.00
68380;BME280;57711;53.196;19.638;2023-06-14T07:33:45;100337.27;;;19.19;51.90
68380;BME280;57711;53.196;19.638;2023-06-14T07:36:12;100341.66;;;19.25;52.02
68380;BME280;57711;53.196;19.638;2023-06-14T07:38:38;100338.88;;;19.30;51.95
68380;BME280;57711;53.196;19.638;2023-06-14T07:41:07;100343.58;;;19.37;52.07
68380;BME280;57711;53.196;19.638;2023-06-14T07:43:33;100351.42;;;19.49;51.98
68380;BME280;57711;53.196;19.638;2023-06-14T07:46:00;100346.88;;;19.59;51.94
68380;BME280;57711;53.196;19.638;2023-06-14T07:48:34;100348.31;;;19.61;51.80
68380;BME280;57711;53.196;19.638;2023-06-14T07:51:01;100350.84;;;19.60;51.69
68380;BME280;57711;53.196;19.638;2023-06-14T07:53:28;100350.06;;;19.59;51.72
68380;BME280;57711;53.196;19.638;2023-06-14T07:55:55;100352.95;;;19.59;51.77
68380;BME280;57711;53.196;19.638;2023-06-14T07:58:21;100358.64;;;19.61;51.88
68380;BME280;57711;53.196;19.638;2023-06-14T08:00:48;100358.65;;;19.65;51.98
68380;BME280;57711;53.196;19.638;2023-06-14T08:03:15;100361.45;;;19.71;51.88
68380;BME280;57711;53.196;19.638;2023-06-14T08:05:42;100363.94;;;19.78;51.91
68380;BME280;57711;53.196;19.638;2023-06-14T08:08:08;100356.95;;;19.90;51.87
68380;BME280;57711;53.196;19.638;2023-06-14T08:10:35;100353.80;;;20.05;52.13
68380;BME280;57711;53.196;19.638;2023-06-14T08:13:01;100352.49;;;20.21;52.03
68380;BME280;57711;53.196;19.638;2023-06-14T08:15:28;100355.89;;;20.36;51.98
68380;BME280;57711;53.196;19.638;2023-06-14T08:17:54;100352.13;;;20.47;51.81
68380;BME280;57711;53.196;19.638;2023-06-14T08:20:21;100353.38;;;20.54;51.77
68380;BME280;57711;53.196;19.638;2023-06-14T08:22:48;100353.38;;;20.56;51.59
68380;BME280;57711;53.196;19.638;2023-06-14T08:25:15;100350.33;;;20.56;51.50
68380;BME280;57711;53.196;19.638;2023-06-14T08:27:42;100352.22;;;20.53;51.41
68380;BME280;57711;53.196;19.638;2023-06-14T08:30:09;100349.81;;;20.50;51.45
68380;BME280;57711;53.196;19.638;2023-06-14T08:32:36;100351.45;;;20.46;51.20
68380;BME280;57711;53.196;19.638;2023-06-14T08:35:03;100351.50;;;20.44;51.21
68380;BME280;57711;53.196;19.638;2023-06-14T08:37:32;100350.79;;;20.44;51.32
68380;BME280;57711;53.196;19.638;2023-06-14T08:39:59;100355.04;;;20.45;51.40
68380;BME280;57711;53.196;19.638;2023-06-14T08:42:26;100354.66;;;20.45;51.37
68380;BME280;57711;53.196;19.638;2023-06-14T08:45:07;100350.64;;;20.47;51.31
68380;BME280;57711;53.196;19.638;2023-06-14T08:47:34;100347.95;;;20.49;51.40
68380;BME280;57711;53.196;19.638;2023-06-14T08:50:08;100345.23;;;20.50;51.28
68380;BME280;57711;53.196;19.638;2023-06-14T08:52:54;100345.14;;;20.54;51.26
68380;BME280;57711;53.196;19.638;2023-06-14T08:55:24;100343.59;;;20.55;51.26
68380;BME280;57711;53.196;19.638;2023-06-14T08:58:01;100346.20;;;20.58;51.21
68380;BME280;57711;53.196;19.638;2023-06-14T09:00:29;100347.48;;;20.60;51.12
68380;BME280;57711;53.196;19.638;2023-06-14T09:02:56;100347.58;;;20.60;51.32
68380;BME280;57711;53.196;19.638;2023-06-14T09:05:27;100345.22;;;20.62;51.06
68380;BME280;57711;53.196;19.638;2023-06-14T09:07:54;100348.17;;;20.61;51.16
68380;BME280;57711;53.196;19.638;2023-06-14T09:10:22;100350.70;;;20.62;51.20
68380;BME280;57711;53.196;19.638;2023-06-14T09:12:51;100349.55;;;20.59;50.96
68380;BME280;57711;53.196;19.638;2023-06-14T09:15:17;100352.11;;;20.55;50.88
68380;BME280;57711;53.196;19.638;2023-06-14T09:17:46;100347.21;;;20.53;51.02
68380;BME280;57711;53.196;19.638;2023-06-14T09:20:12;100351.07;;;20.53;50.93
68380;BME280;57711;53.196;19.638;2023-06-14T09:22:44;100344.62;;;20.52;50.65
68380;BME280;57711;53.196;19.638;2023-06-14T09:25:11;100350.11;;;20.48;50.48
68380;BME280;57711;53.196;19.638;2023-06-14T09:27:59;100349.48;;;20.43;50.40
68380;BME280;57711;53.196;19.638;2023-06-14T09:30:26;100353.66;;;20.42;50.34
68380;BME280;57711;53.196;19.638;2023-06-14T09:32:53;100358.34;;;20.43;50.35
68380;BME280;57711;53.196;19.638;2023-06-14T09:35:20;100357.13;;;20.42;50.38
68380;BME280;57711;53.196;19.638;2023-06-14T09:37:47;100362.48;;;20.42;50.44
68380;BME280;57711;53.196;19.638;2023-06-14T09:40:20;100365.96;;;20.43;50.14
68380;BME280;57711;53.196;19.638;2023-06-14T09:42:47;100362.27;;;20.39;50.14
68380;BME280;57711;53.196;19.638;2023-06-14T09:45:14;100361.05;;;20.33;49.99
68380;BME280;57711;53.196;19.638;2023-06-14T09:47:45;100359.64;;;20.28;50.05
68380;BME280;57711;53.196;19.638;2023-06-14T09:50:31;100365.46;;;20.24;50.12
68380;BME280;57711;53.196;19.638;2023-06-14T09:53:07;100370.85;;;20.22;50.08
68380;BME280;57711;53.196;19.638;2023-06-14T09:55:49;100368.50;;;20.19;50.12
68380;BME280;57711;53.196;19.638;2023-06-14T09:58:17;100369.08;;;20.13;50.10
68380;BME280;57711;53.196;19.638;2023-06-14T10:00:47;100374.27;;;20.07;50.06
68380;BME280;57711;53.196;19.638;2023-06-14T10:03:21;100388.73;;;20.00;50.17
68380;BME280;57711;53.196;19.638;2023-06-14T10:05:50;100396.29;;;19.93;50.12
68380;BME280;57711;53.196;19.638;2023-06-14T10:08:19;100399.43;;;19.87;50.15
68380;BME280;57711;53.196;19.638;2023-06-14T10:10:48;100399.94;;;19.78;50.05
68380;BME280;57711;53.196;19.638;2023-06-14T10:13:16;100395.09;;;19.65;50.11
68380;BME280;57711;53.196;19.638;2023-06-14T10:15:52;100380.91;;;19.48;49.92
68380;BME280;57711;53.196;19.638;2023-06-14T10:18:35;100377.59;;;19.30;50.12
68380;BME280;57711;53.196;19.638;2023-06-14T10:21:17;100380.98;;;19.12;50.28
68380;BME280;57711;53.196;19.638;2023-06-14T10:23:45;100389.11;;;18.94;50.32
68380;BME280;57711;53.196;19.638;2023-06-14T10:26:20;100399.33;;;18.76;50.40
68380;BME280;57711;53.196;19.638;2023-06-14T10:29:00;100402.05;;;18.65;50.55
68380;BME280;57711;53.196;19.638;2023-06-14T10:31:48;100407.02;;;18.61;50.66
68380;BME280;57711;53.196;19.638;2023-06-14T10:34:29;100401.95;;;18.57;50.76
68380;BME280;57711;53.196;19.638;2023-06-14T10:37:23;100394.77;;;18.53;50.69
68380;BME280;57711;53.196;19.638;2023-06-14T10:39:51;100404.34;;;18.48;50.74
68380;BME280;57711;53.196;19.638;2023-06-14T10:42:32;100401.43;;;18.42;50.76
68380;BME280;57711;53.196;19.638;2023-06-14T10:45:00;100394.17;;;18.37;50.94
68380;BME280;57711;53.196;19.638;2023-06-14T10:47:32;100386.17;;;18.32;50.93
68380;BME280;57711;53.196;19.638;2023-06-14T10:50:06;100388.78;;;18.23;50.97
68380;BME280;57711;53.196;19.638;2023-06-14T10:52:42;100388.66;;;18.19;51.05
68380;BME280;57711;53.196;19.638;2023-06-14T10:55:19;100387.35;;;18.17;51.11
68380;BME280;57711;53.196;19.638;2023-06-14T10:57:55;100389.98;;;18.18;51.21
68380;BME280;57711;53.196;19.638;2023-06-14T11:00:27;100387.70;;;18.16;51.09
68380;BME280;57711;53.196;19.638;2023-06-14T11:05:59;100390.95;;;18.13;51.37
68380;BME280;57711;53.196;19.638;2023-06-14T11:11:13;100403.81;;;18.24;51.31
68380;BME280;57711;53.196;19.638;2023-06-14T11:13:44;100404.35;;;18.30;51.59
68380;BME280;57711;53.196;19.638;2023-06-14T11:16:16;100404.35;;;18.34;51.22
68380;BME280;57711;53.196;19.638;2023-06-14T11:18:44;100407.67;;;18.39;51.43
68380;BME280;57711;53.196;19.638;2023-06-14T11:21:16;100406.85;;;18.42;51.50
68380;BME280;57711;53.196;19.638;2023-06-14T11:23:49;100407.61;;;18.45;51.54
68380;BME280;57711;53.196;19.638;2023-06-14T11:26:24;100402.83;;;18.47;51.61
68380;BME280;57711;53.196;19.638;2023-06-14T11:28:54;100403.05;;;18.48;51.82
68380;BME280;57711;53.196;19.638;2023-06-14T11:31:21;100398.94;;;18.49;51.74
68380;BME280;57711;53.196;19.638;2023-06-14T11:33:53;100392.66;;;18.51;51.65
68380;BME280;57711;53.196;19.638;2023-06-14T11:36:20;100379.60;;;18.53;51.56
68380;BME280;57711;53.196;19.638;2023-06-14T11:38:46;100374.45;;;18.56;51.62
68380;BME280;57711;53.196;19.638;2023-06-14T11:41:13;100371.23;;;18.58;51.63
68380;BME280;57711;53.196;19.638;2023-06-14T11:43:40;100361.77;;;18.60;51.67
68380;BME280;57711;53.196;19.638;2023-06-14T11:46:12;100352.17;;;18.60;51.75
68380;BME280;57711;53.196;19.638;2023-06-14T11:48:42;100343.84;;;18.61;51.74
68380;BME280;57711;53.196;19.638;2023-06-14T11:51:09;100341.05;;;18.60;51.72
68380;BME280;57711;53.196;19.638;2023-06-14T11:53:37;100343.77;;;18.59;51.71
68380;BME280;57711;53.196;19.638;2023-06-14T11:56:05;100344.36;;;18.61;51.82
68380;BME280;57711;53.196;19.638;2023-06-14T11:58:31;100342.02;;;18.65;51.89
68380;BME280;57711;53.196;19.638;2023-06-14T12:00:58;100334.86;;;18.70;51.67
68380;BME280;57711;53.196;19.638;2023-06-14T12:03:25;100330.95;;;18.72;51.65
68380;BME280;57711;53.196;19.638;2023-06-14T12:06:08;100327.69;;;18.77;51.77
68380;BME280;57711;53.196;19.638;2023-06-14T12:08:36;100327.95;;;18.84;51.63
68380;BME280;57711;53.196;19.638;2023-06-14T12:11:13;100327.80;;;18.95;51.79
68380;BME280;57711;53.196;19.638;2023-06-14T12:13:41;100323.34;;;19.09;51.71
68380;BME280;57711;53.196;19.638;2023-06-14T12:16:09;100321.84;;;19.21;51.64
68380;BME280;57711;53.196;19.638;2023-06-14T12:18:36;100321.50;;;19.31;51.73
68380;BME280;57711;53.196;19.638;2023-06-14T12:21:07;100323.61;;;19.40;51.64
68380;BME280;57711;53.196;19.638;2023-06-14T12:23:49;100320.96;;;19.50;51.67
68380;BME280;57711;53.196;19.638;2023-06-14T12:26:20;100318.30;;;19.58;51.66
68380;BME280;57711;53.196;19.638;2023-06-14T12:28:47;100318.92;;;19.61;51.46
68380;BME280;57711;53.196;19.638;2023-06-14T12:31:29;100315.04;;;19.66;51.64
68380;BME280;57711;53.196;19.638;2023-06-14T12:33:56;100315.80;;;19.72;51.80
68380;BME280;57711;53.196;19.638;2023-06-14T12:36:22;100311.54;;;19.79;51.68
68380;BME280;57711;53.196;19.638;2023-06-14T12:39:03;100311.95;;;19.88;51.54
68380;BME280;57711;53.196;19.638;2023-06-14T12:41:30;100310.11;;;19.95;51.63
68380;BME280;57711;53.196;19.638;2023-06-14T12:43:57;100314.08;;;20.03;51.57
68380;BME280;57711;53.196;19.638;2023-06-14T12:46:25;100312.42;;;20.11;51.63
68380;BME280;57711;53.196;19.638;2023-06-14T12:48:52;100312.09;;;20.21;51.57
68380;BME280;57711;53.196;19.638;2023-06-14T12:51:18;100313.75;;;20.28;51.38
68380;BME280;57711;53.196;19.638;2023-06-14T12:53:45;100315.96;;;20.29;51.18
68380;BME280;57711;53.196;19.638;2023-06-14T12:56:11;100312.13;;;20.26;51.10
68380;BME280;57711;53.196;19.638;2023-06-14T12:58:38;100314.56;;;20.23;51.13